Albuquerque, NM

6:24 AM MST on February 01, 2015 (GMT -0700)
Vista Casitas | Change Station
CLOSE
Current Station
Personal Weather Station
Location: Albuquerque, NM
Elevation: 5466 ft
Nearby Weather Stations

Elev 5466 ft 35.19 °N, 106.74 °W | Updated 4 minutes ago

Clear
Clear
32.7 °F
Feels Like 33 °F
N
0.0
Wind Variable Wind from West
Gusts 0.0 mph

Today
High -- | Low -- °F
--% Chance of Precip.
Yesterday
High -- | Low -- °F
Precip. -- in
7:06 AM 5:35 PM
Waxing Gibbous, 95% visible
Pressure 30.04 in
Visibility 10.0 miles
Clouds Few 4000 ft
Windchill 33 °F
Dew Point 29 °F
Humidity 85%
Rainfall 0.00 in
Snow Depth Not available.
UV 0 out of 12
Pollen .50 out of 12
Air Quality Not available.
Flu Activity Not available.
METAR KABQ 011252Z 32003KT 10SM FEW040 01/M01 A3005 RMK AO2 SLP173 MTN TOP OBSC NE T00111011

More Conditions Fewer Conditions

Pressure 30.04 in
Visibility 10.0 miles
Clouds Few 4000 ft
Windchill 33 °F
Dew Point 29 °F
Humidity 85%
Rainfall 0.00 in
Snow Depth Not available.
UV 0 out of 12
Pollen .50 out of 12
Air Quality Not available.
Flu Activity Not available.
METAR KABQ 011252Z 32003KT 10SM FEW040 01/M01 A3005 RMK AO2 SLP173 MTN TOP OBSC NE T00111011

More Conditions Fewer Conditions

10-Day Weather Forecast

Almanac

Astronomy

Feb. 01, 2015 Rise Set
Actual Time
Civil Twilight
Nautical Twilight
Astronomical Twilight
Moon
Length of Visible Light
Length of Day
Tomorrow will be .
, % of the Moon is Illuminated

Today's Extremes

State Highs State Lows

Community

WunderPhotos

Upload Photos

1,792,359 photos uploaded!

WunderBlogs® & News

Nearby

Air Quality

  Air Quality AQ Index Pollutant
Not available.

Snow Depth

Station Depth Elevation

Earthquake Activity

City Distance Mag. Time & Date
Minimum magnitude displayed is 2.5.

Coastal Water Temperatures

Place Temperature

Nearby Weather Stations